sensor_id;sensor_type;location;lat;lon;timestamp;P1;durP1;ratioP1;P2;durP2;ratioP2
70899;SDS011;67902;52.154;5.430;2023-03-20T00:01:19;15.55;;;4.30;;
70899;SDS011;67902;52.154;5.430;2023-03-20T00:03:49;11.73;;;4.07;;
70899;SDS011;67902;52.154;5.430;2023-03-20T00:06:17;12.23;;;4.30;;
70899;SDS011;67902;52.154;5.430;2023-03-20T00:08:49;14.23;;;4.63;;
70899;SDS011;67902;52.154;5.430;2023-03-20T00:11:26;15.75;;;5.03;;
70899;SDS011;67902;52.154;5.430;2023-03-20T00:14:02;14.02;;;5.15;;
70899;SDS011;67902;52.154;5.430;2023-03-20T00:16:35;15.38;;;4.82;;
70899;SDS011;67902;52.154;5.430;2023-03-20T00:19:03;15.93;;;5.00;;
70899;SDS011;67902;52.154;5.430;2023-03-20T00:23:58;18.77;;;5.75;;
70899;SDS011;67902;52.154;5.430;2023-03-20T00:26:26;17.48;;;6.00;;
70899;SDS011;67902;52.154;5.430;2023-03-20T00:28:57;18.20;;;6.72;;
70899;SDS011;67902;52.154;5.430;2023-03-20T00:31:25;18.17;;;6.20;;
70899;SDS011;67902;52.154;5.430;2023-03-20T00:33:55;17.42;;;6.25;;
70899;SDS011;67902;52.154;5.430;2023-03-20T00:36:22;17.73;;;6.28;;
70899;SDS011;67902;52.154;5.430;2023-03-20T00:38:49;22.10;;;8.15;;
70899;SDS011;67902;52.154;5.430;2023-03-20T00:44:04;22.55;;;7.40;;
70899;SDS011;67902;52.154;5.430;2023-03-20T00:46:43;19.98;;;6.68;;
70899;SDS011;67902;52.154;5.430;2023-03-20T00:49:12;17.33;;;7.57;;
70899;SDS011;67902;52.154;5.430;2023-03-20T00:51:41;24.30;;;8.65;;
70899;SDS011;67902;52.154;5.430;2023-03-20T00:54:11;25.67;;;8.77;;
70899;SDS011;67902;52.154;5.430;2023-03-20T00:56:39;22.92;;;9.10;;
70899;SDS011;67902;52.154;5.430;2023-03-20T00:59:12;20.27;;;8.30;;
70899;SDS011;67902;52.154;5.430;2023-03-20T01:01:43;26.50;;;9.85;;
70899;SDS011;67902;52.154;5.430;2023-03-20T01:04:13;22.02;;;8.02;;
70899;SDS011;67902;52.154;5.430;2023-03-20T01:06:42;18.02;;;7.35;;
70899;SDS011;67902;52.154;5.430;2023-03-20T01:09:09;18.65;;;7.35;;
70899;SDS011;67902;52.154;5.430;2023-03-20T01:11:36;21.20;;;7.75;;
70899;SDS011;67902;52.154;5.430;2023-03-20T01:14:05;22.05;;;8.15;;
70899;SDS011;67902;52.154;5.430;2023-03-20T01:16:38;24.83;;;7.50;;
70899;SDS011;67902;52.154;5.430;2023-03-20T01:19:11;18.50;;;7.25;;
70899;SDS011;67902;52.154;5.430;2023-03-20T01:21:40;16.10;;;7.68;;
70899;SDS011;67902;52.154;5.430;2023-03-20T01:24:07;16.33;;;6.70;;
70899;SDS011;67902;52.154;5.430;2023-03-20T01:26:41;19.30;;;7.05;;
70899;SDS011;67902;52.154;5.430;2023-03-20T01:29:20;19.77;;;6.60;;
70899;SDS011;67902;52.154;5.430;2023-03-20T01:31:48;20.70;;;7.68;;
70899;SDS011;67902;52.154;5.430;2023-03-20T01:34:16;21.48;;;7.47;;
70899;SDS011;67902;52.154;5.430;2023-03-20T01:36:43;18.00;;;7.18;;
70899;SDS011;67902;52.154;5.430;2023-03-20T01:39:16;20.23;;;7.20;;
70899;SDS011;67902;52.154;5.430;2023-03-20T01:44:19;15.85;;;6.50;;
70899;SDS011;67902;52.154;5.430;2023-03-20T01:46:48;20.02;;;7.57;;
70899;SDS011;67902;52.154;5.430;2023-03-20T01:51:44;18.27;;;5.78;;
70899;SDS011;67902;52.154;5.430;2023-03-20T01:54:12;15.13;;;5.75;;
70899;SDS011;67902;52.154;5.430;2023-03-20T01:56:48;17.27;;;6.75;;
70899;SDS011;67902;52.154;5.430;2023-03-20T01:59:23;15.65;;;5.85;;
70899;SDS011;67902;52.154;5.430;2023-03-20T02:01:54;16.80;;;6.03;;
70899;SDS011;67902;52.154;5.430;2023-03-20T02:04:23;20.90;;;5.82;;
70899;SDS011;67902;52.154;5.430;2023-03-20T02:06:54;15.27;;;5.68;;
70899;SDS011;67902;52.154;5.430;2023-03-20T02:09:22;19.23;;;5.72;;
70899;SDS011;67902;52.154;5.430;2023-03-20T02:11:48;14.00;;;5.13;;
70899;SDS011;67902;52.154;5.430;2023-03-20T02:14:16;13.25;;;4.90;;
70899;SDS011;67902;52.154;5.430;2023-03-20T02:16:43;12.80;;;4.38;;
70899;SDS011;67902;52.154;5.430;2023-03-20T02:19:13;11.85;;;3.83;;
70899;SDS011;67902;52.154;5.430;2023-03-20T02:24:53;13.35;;;4.25;;
70899;SDS011;67902;52.154;5.430;2023-03-20T02:35:54;13.00;;;3.90;;
70899;SDS011;67902;52.154;5.430;2023-03-20T02:38:32;10.65;;;3.88;;
70899;SDS011;67902;52.154;5.430;2023-03-20T02:41:19;11.40;;;3.65;;
70899;SDS011;67902;52.154;5.430;2023-03-20T02:44:12;17.42;;;4.50;;
70899;SDS011;67902;52.154;5.430;2023-03-20T02:52:30;14.50;;;5.45;;
70899;SDS011;67902;52.154;5.430;2023-03-20T03:00:37;13.43;;;5.15;;
70899;SDS011;67902;52.154;5.430;2023-03-20T03:03:26;16.38;;;5.43;;
70899;SDS011;67902;52.154;5.430;2023-03-20T03:05:58;17.67;;;5.13;;
70899;SDS011;67902;52.154;5.430;2023-03-20T03:08:30;16.08;;;4.97;;
70899;SDS011;67902;52.154;5.430;2023-03-20T03:11:05;18.77;;;5.32;;
70899;SDS011;67902;52.154;5.430;2023-03-20T03:13:35;19.45;;;5.75;;
70899;SDS011;67902;52.154;5.430;2023-03-20T03:16:08;19.38;;;5.85;;
70899;SDS011;67902;52.154;5.430;2023-03-20T03:18:42;16.48;;;5.22;;
70899;SDS011;67902;52.154;5.430;2023-03-20T03:21:11;18.15;;;5.35;;
70899;SDS011;67902;52.154;5.430;2023-03-20T03:23:44;15.48;;;5.10;;
70899;SDS011;67902;52.154;5.430;2023-03-20T03:26:14;13.57;;;4.65;;
70899;SDS011;67902;52.154;5.430;2023-03-20T03:28:47;13.65;;;4.85;;
70899;SDS011;67902;52.154;5.430;2023-03-20T03:31:17;21.60;;;6.28;;
70899;SDS011;67902;52.154;5.430;2023-03-20T03:33:45;21.33;;;6.28;;
70899;SDS011;67902;52.154;5.430;2023-03-20T03:39:07;17.63;;;6.47;;
70899;SDS011;67902;52.154;5.430;2023-03-20T03:44:44;18.48;;;5.93;;
70899;SDS011;67902;52.154;5.430;2023-03-20T03:47:31;18.83;;;7.32;;
70899;SDS011;67902;52.154;5.430;2023-03-20T03:50:11;17.33;;;6.88;;
70899;SDS011;67902;52.154;5.430;2023-03-20T03:52:42;21.25;;;7.70;;
70899;SDS011;67902;52.154;5.430;2023-03-20T03:55:13;28.45;;;7.60;;
70899;SDS011;67902;52.154;5.430;2023-03-20T03:57:47;24.63;;;8.10;;
70899;SDS011;67902;52.154;5.430;2023-03-20T04:00:18;25.17;;;8.43;;
70899;SDS011;67902;52.154;5.430;2023-03-20T04:02:48;21.50;;;7.65;;
70899;SDS011;67902;52.154;5.430;2023-03-20T04:05:18;22.42;;;8.07;;
70899;SDS011;67902;52.154;5.430;2023-03-20T04:07:46;27.75;;;8.57;;
70899;SDS011;67902;52.154;5.430;2023-03-20T04:10:17;28.10;;;8.63;;
70899;SDS011;67902;52.154;5.430;2023-03-20T04:12:44;24.23;;;7.78;;
70899;SDS011;67902;52.154;5.430;2023-03-20T04:15:12;27.67;;;8.68;;
70899;SDS011;67902;52.154;5.430;2023-03-20T04:17:41;30.55;;;9.07;;
70899;SDS011;67902;52.154;5.430;2023-03-20T04:20:08;23.98;;;7.95;;
70899;SDS011;67902;52.154;5.430;2023-03-20T04:22:38;28.95;;;8.45;;
70899;SDS011;67902;52.154;5.430;2023-03-20T04:25:08;23.10;;;7.72;;
70899;SDS011;67902;52.154;5.430;2023-03-20T04:27:40;31.63;;;8.55;;
70899;SDS011;67902;52.154;5.430;2023-03-20T04:30:07;23.02;;;8.32;;
70899;SDS011;67902;52.154;5.430;2023-03-20T04:32:35;25.05;;;8.32;;
70899;SDS011;67902;52.154;5.430;2023-03-20T04:35:01;22.08;;;8.25;;
70899;SDS011;67902;52.154;5.430;2023-03-20T04:37:28;23.77;;;8.68;;
70899;SDS011;67902;52.154;5.430;2023-03-20T04:39:55;20.10;;;7.15;;
70899;SDS011;67902;52.154;5.430;2023-03-20T04:42:21;23.08;;;9.05;;
70899;SDS011;67902;52.154;5.430;2023-03-20T04:44:48;22.25;;;8.43;;
70899;SDS011;67902;52.154;5.430;2023-03-20T04:47:14;24.10;;;9.38;;
70899;SDS011;67902;52.154;5.430;2023-03-20T04:49:41;22.83;;;8.38;;
70899;SDS011;67902;52.154;5.430;2023-03-20T04:52:08;20.90;;;8.88;;
70899;SDS011;67902;52.154;5.430;2023-03-20T04:54:34;23.08;;;8.75;;
70899;SDS011;67902;52.154;5.430;2023-03-20T04:57:01;26.45;;;9.75;;
70899;SDS011;67902;52.154;5.430;2023-03-20T04:59:27;21.58;;;8.95;;
70899;SDS011;67902;52.154;5.430;2023-03-20T05:01:54;26.50;;;10.25;;
70899;SDS011;67902;52.154;5.430;2023-03-20T05:04:20;25.17;;;8.80;;
70899;SDS011;67902;52.154;5.430;2023-03-20T05:06:47;22.73;;;9.55;;
70899;SDS011;67902;52.154;5.430;2023-03-20T05:09:15;26.08;;;10.05;;
70899;SDS011;67902;52.154;5.430;2023-03-20T05:11:41;25.42;;;9.50;;
70899;SDS011;67902;52.154;5.430;2023-03-20T05:14:08;24.30;;;10.43;;
70899;SDS011;67902;52.154;5.430;2023-03-20T05:16:38;26.65;;;11.00;;
70899;SDS011;67902;52.154;5.430;2023-03-20T05:19:05;24.15;;;9.93;;
70899;SDS011;67902;52.154;5.430;2023-03-20T05:21:31;23.08;;;9.90;;
70899;SDS011;67902;52.154;5.430;2023-03-20T05:23:57;27.25;;;10.15;;
70899;SDS011;67902;52.154;5.430;2023-03-20T05:26:24;21.73;;;9.80;;
70899;SDS011;67902;52.154;5.430;2023-03-20T05:28:50;29.25;;;9.98;;
70899;SDS011;67902;52.154;5.430;2023-03-20T05:31:17;25.75;;;10.13;;
70899;SDS011;67902;52.154;5.430;2023-03-20T05:33:43;27.38;;;10.68;;
70899;SDS011;67902;52.154;5.430;2023-03-20T05:36:10;26.83;;;10.95;;
70899;SDS011;67902;52.154;5.430;2023-03-20T05:38:36;23.58;;;9.80;;
70899;SDS011;67902;52.154;5.430;2023-03-20T05:41:03;26.75;;;10.77;;
70899;SDS011;67902;52.154;5.430;2023-03-20T05:43:29;23.92;;;10.98;;
70899;SDS011;67902;52.154;5.430;2023-03-20T05:45:56;29.40;;;10.18;;
70899;SDS011;67902;52.154;5.430;2023-03-20T05:48:23;28.50;;;10.10;;
70899;SDS011;67902;52.154;5.430;2023-03-20T05:50:49;28.42;;;11.30;;
70899;SDS011;67902;52.154;5.430;2023-03-20T05:53:16;20.90;;;9.68;;
70899;SDS011;67902;52.154;5.430;2023-03-20T05:55:42;26.25;;;11.27;;
70899;SDS011;67902;52.154;5.430;2023-03-20T05:58:10;23.45;;;9.95;;
70899;SDS011;67902;52.154;5.430;2023-03-20T06:00:37;26.85;;;10.80;;
70899;SDS011;67902;52.154;5.430;2023-03-20T06:03:06;22.80;;;10.07;;
70899;SDS011;67902;52.154;5.430;2023-03-20T06:05:33;23.30;;;8.98;;
70899;SDS011;67902;52.154;5.430;2023-03-20T06:08:01;28.15;;;9.60;;
70899;SDS011;67902;52.154;5.430;2023-03-20T06:10:27;25.05;;;9.80;;
70899;SDS011;67902;52.154;5.430;2023-03-20T06:12:55;27.20;;;10.25;;
70899;SDS011;67902;52.154;5.430;2023-03-20T06:17:49;25.30;;;10.02;;
70899;SDS011;67902;52.154;5.430;2023-03-20T06:20:16;21.27;;;9.50;;
70899;SDS011;67902;52.154;5.430;2023-03-20T06:22:42;23.77;;;9.63;;
70899;SDS011;67902;52.154;5.430;2023-03-20T06:25:11;27.10;;;9.40;;
70899;SDS011;67902;52.154;5.430;2023-03-20T06:27:38;24.00;;;10.40;;
70899;SDS011;67902;52.154;5.430;2023-03-20T06:30:05;22.58;;;9.27;;
70899;SDS011;67902;52.154;5.430;2023-03-20T06:32:32;21.55;;;9.55;;
70899;SDS011;67902;52.154;5.430;2023-03-20T06:34:58;22.52;;;9.20;;
70899;SDS011;67902;52.154;5.430;2023-03-20T06:37:25;23.60;;;9.40;;
70899;SDS011;67902;52.154;5.430;2023-03-20T06:39:51;22.42;;;9.65;;
70899;SDS011;67902;52.154;5.430;2023-03-20T06:42:17;23.55;;;8.85;;
70899;SDS011;67902;52.154;5.430;2023-03-20T06:44:44;22.23;;;9.50;;
70899;SDS011;67902;52.154;5.430;2023-03-20T06:47:10;22.33;;;8.85;;
70899;SDS011;67902;52.154;5.430;2023-03-20T06:49:37;26.27;;;9.98;;
70899;SDS011;67902;52.154;5.430;2023-03-20T06:52:04;24.15;;;9.70;;
70899;SDS011;67902;52.154;5.430;2023-03-20T06:54:30;20.02;;;9.13;;
70899;SDS011;67902;52.154;5.430;2023-03-20T06:56:57;21.30;;;8.90;;
70899;SDS011;67902;52.154;5.430;2023-03-20T06:59:23;20.80;;;8.70;;
70899;SDS011;67902;52.154;5.430;2023-03-20T07:01:50;24.55;;;7.88;;
70899;SDS011;67902;52.154;5.430;2023-03-20T07:04:17;23.63;;;8.68;;
70899;SDS011;67902;52.154;5.430;2023-03-20T07:06:44;27.05;;;9.30;;
70899;SDS011;67902;52.154;5.430;2023-03-20T07:09:13;22.25;;;9.15;;
70899;SDS011;67902;52.154;5.430;2023-03-20T07:11:42;19.02;;;8.55;;
70899;SDS011;67902;52.154;5.430;2023-03-20T07:14:11;21.10;;;9.00;;
70899;SDS011;67902;52.154;5.430;2023-03-20T07:16:37;22.50;;;8.00;;
70899;SDS011;67902;52.154;5.430;2023-03-20T07:19:04;22.10;;;8.70;;
70899;SDS011;67902;52.154;5.430;2023-03-20T07:21:31;17.27;;;8.38;;
70899;SDS011;67902;52.154;5.430;2023-03-20T07:23:58;23.02;;;8.40;;
70899;SDS011;67902;52.154;5.430;2023-03-20T07:26:24;22.17;;;8.43;;
70899;SDS011;67902;52.154;5.430;2023-03-20T07:28:52;20.80;;;8.15;;
70899;SDS011;67902;52.154;5.430;2023-03-20T07:31:19;22.00;;;8.25;;
70899;SDS011;67902;52.154;5.430;2023-03-20T07:33:48;23.92;;;8.43;;
70899;SDS011;67902;52.154;5.430;2023-03-20T07:36:14;24.48;;;8.70;;
70899;SDS011;67902;52.154;5.430;2023-03-20T07:38:41;22.38;;;8.52;;
70899;SDS011;67902;52.154;5.430;2023-03-20T07:41:07;19.60;;;8.05;;
70899;SDS011;67902;52.154;5.430;2023-03-20T07:43:34;20.23;;;7.97;;
70899;SDS011;67902;52.154;5.430;2023-03-20T07:46:01;17.08;;;7.70;;
70899;SDS011;67902;52.154;5.430;2023-03-20T07:48:29;16.83;;;8.20;;
70899;SDS011;67902;52.154;5.430;2023-03-20T07:50:56;28.38;;;8.75;;
70899;SDS011;67902;52.154;5.430;2023-03-20T07:53:23;19.83;;;8.02;;
70899;SDS011;67902;52.154;5.430;2023-03-20T07:55:49;23.67;;;8.60;;
70899;SDS011;67902;52.154;5.430;2023-03-20T07:58:16;21.40;;;8.07;;
70899;SDS011;67902;52.154;5.430;2023-03-20T08:00:43;16.63;;;6.97;;
70899;SDS011;67902;52.154;5.430;2023-03-20T08:03:09;19.38;;;7.07;;
70899;SDS011;67902;52.154;5.430;2023-03-20T08:05:39;20.35;;;7.82;;
70899;SDS011;67902;52.154;5.430;2023-03-20T08:08:06;21.73;;;7.93;;
70899;SDS011;67902;52.154;5.430;2023-03-20T08:10:34;16.02;;;7.28;;
70899;SDS011;67902;52.154;5.430;2023-03-20T08:13:00;19.55;;;7.05;;
70899;SDS011;67902;52.154;5.430;2023-03-20T08:15:27;23.98;;;7.05;;
70899;SDS011;67902;52.154;5.430;2023-03-20T08:17:53;21.25;;;7.10;;
70899;SDS011;67902;52.154;5.430;2023-03-20T08:20:19;17.17;;;5.93;;
70899;SDS011;67902;52.154;5.430;2023-03-20T08:22:46;17.55;;;6.38;;
70899;SDS011;67902;52.154;5.430;2023-03-20T08:27:41;18.70;;;5.68;;
70899;SDS011;67902;52.154;5.430;2023-03-20T08:30:10;18.77;;;5.93;;
70899;SDS011;67902;52.154;5.430;2023-03-20T08:32:42;17.45;;;5.82;;
70899;SDS011;67902;52.154;5.430;2023-03-20T08:35:08;19.83;;;5.70;;
70899;SDS011;67902;52.154;5.430;2023-03-20T08:37:55;17.50;;;5.47;;
70899;SDS011;67902;52.154;5.430;2023-03-20T08:40:21;19.08;;;6.40;;
70899;SDS011;67902;52.154;5.430;2023-03-20T08:42:47;17.30;;;5.45;;
70899;SDS011;67902;52.154;5.430;2023-03-20T08:45:14;16.77;;;5.88;;
70899;SDS011;67902;52.154;5.430;2023-03-20T08:47:42;15.27;;;5.82;;
70899;SDS011;67902;52.154;5.430;2023-03-20T08:50:08;17.30;;;6.03;;
70899;SDS011;67902;52.154;5.430;2023-03-20T08:52:38;21.83;;;5.47;;
70899;SDS011;67902;52.154;5.430;2023-03-20T08:55:09;16.88;;;5.78;;
70899;SDS011;67902;52.154;5.430;2023-03-20T08:57:37;16.35;;;6.25;;
70899;SDS011;67902;52.154;5.430;2023-03-20T09:00:04;14.73;;;4.75;;
70899;SDS011;67902;52.154;5.430;2023-03-20T09:02:32;14.98;;;5.82;;
70899;SDS011;67902;52.154;5.430;2023-03-20T09:04:59;15.13;;;5.60;;
70899;SDS011;67902;52.154;5.430;2023-03-20T09:07:26;19.13;;;6.43;;
70899;SDS011;67902;52.154;5.430;2023-03-20T09:09:53;15.35;;;5.30;;
70899;SDS011;67902;52.154;5.430;2023-03-20T09:12:19;20.42;;;6.00;;
70899;SDS011;67902;52.154;5.430;2023-03-20T09:14:46;13.02;;;5.40;;
70899;SDS011;67902;52.154;5.430;2023-03-20T09:17:13;17.63;;;5.75;;
70899;SDS011;67902;52.154;5.430;2023-03-20T09:19:39;13.70;;;5.10;;
70899;SDS011;67902;52.154;5.430;2023-03-20T09:22:13;14.27;;;5.28;;
70899;SDS011;67902;52.154;5.430;2023-03-20T09:24:40;13.35;;;5.70;;
70899;SDS011;67902;52.154;5.430;2023-03-20T09:27:07;13.10;;;5.13;;
70899;SDS011;67902;52.154;5.430;2023-03-20T09:29:33;15.63;;;4.90;;
70899;SDS011;67902;52.154;5.430;2023-03-20T09:32:00;10.88;;;4.47;;
70899;SDS011;67902;52.154;5.430;2023-03-20T09:34:26;20.83;;;5.57;;
70899;SDS011;67902;52.154;5.430;2023-03-20T09:39:21;14.15;;;5.03;;
70899;SDS011;67902;52.154;5.430;2023-03-20T09:41:48;13.00;;;4.78;;
70899;SDS011;67902;52.154;5.430;2023-03-20T09:52:58;13.10;;;4.35;;
70899;SDS011;67902;52.154;5.430;2023-03-20T09:55:45;15.50;;;4.57;;
70899;SDS011;67902;52.154;5.430;2023-03-20T09:58:20;11.05;;;3.75;;
70899;SDS011;67902;52.154;5.430;2023-03-20T10:00:50;13.27;;;3.80;;
70899;SDS011;67902;52.154;5.430;2023-03-20T10:03:21;10.35;;;3.70;;
70899;SDS011;67902;52.154;5.430;2023-03-20T10:05:55;17.83;;;4.00;;
70899;SDS011;67902;52.154;5.430;2023-03-20T10:08:26;9.70;;;3.83;;
70899;SDS011;67902;52.154;5.430;2023-03-20T10:11:01;11.32;;;3.72;;
70899;SDS011;67902;52.154;5.430;2023-03-20T10:16:05;13.52;;;4.07;;
70899;SDS011;67902;52.154;5.430;2023-03-20T10:18:50;11.00;;;3.35;;
70899;SDS011;67902;52.154;5.430;2023-03-20T10:21:28;15.18;;;4.30;;
70899;SDS011;67902;52.154;5.430;2023-03-20T10:24:11;14.23;;;4.15;;
70899;SDS011;67902;52.154;5.430;2023-03-20T10:27:05;14.85;;;3.63;;
70899;SDS011;67902;52.154;5.430;2023-03-20T10:29:49;18.30;;;4.35;;
70899;SDS011;67902;52.154;5.430;2023-03-20T10:32:27;14.27;;;3.90;;
70899;SDS011;67902;52.154;5.430;2023-03-20T10:40:37;12.05;;;3.72;;
70899;SDS011;67902;52.154;5.430;2023-03-20T10:43:22;11.75;;;4.03;;
70899;SDS011;67902;52.154;5.430;2023-03-20T10:46:10;10.40;;;3.80;;
70899;SDS011;67902;52.154;5.430;2023-03-20T10:48:43;12.95;;;4.07;;
70899;SDS011;67902;52.154;5.430;2023-03-20T10:51:14;13.30;;;3.78;;
70899;SDS011;67902;52.154;5.430;2023-03-20T10:53:47;16.25;;;3.97;;
70899;SDS011;67902;52.154;5.430;2023-03-20T10:56:28;13.77;;;4.00;;
70899;SDS011;67902;52.154;5.430;2023-03-20T10:59:21;10.73;;;3.70;;
70899;SDS011;67902;52.154;5.430;2023-03-20T11:01:49;13.50;;;4.20;;
70899;SDS011;67902;52.154;5.430;2023-03-20T11:04:16;13.55;;;4.57;;
70899;SDS011;67902;52.154;5.430;2023-03-20T11:09:22;16.00;;;4.68;;
70899;SDS011;67902;52.154;5.430;2023-03-20T11:11:53;16.23;;;4.57;;
70899;SDS011;67902;52.154;5.430;2023-03-20T11:14:23;11.05;;;4.50;;
70899;SDS011;67902;52.154;5.430;2023-03-20T11:16:53;17.15;;;5.00;;
70899;SDS011;67902;52.154;5.430;2023-03-20T11:19:21;12.85;;;4.60;;
70899;SDS011;67902;52.154;5.430;2023-03-20T11:26:53;16.05;;;5.25;;
70899;SDS011;67902;52.154;5.430;2023-03-20T11:29:30;16.83;;;5.97;;
70899;SDS011;67902;52.154;5.430;2023-03-20T11:32:10;13.93;;;5.85;;
70899;SDS011;67902;52.154;5.430;2023-03-20T11:35:21;22.63;;;6.70;;
70899;SDS011;67902;52.154;5.430;2023-03-20T11:37:55;19.80;;;6.50;;
70899;SDS011;67902;52.154;5.430;2023-03-20T11:40:36;13.05;;;5.70;;
70899;SDS011;67902;52.154;5.430;2023-03-20T11:43:11;16.85;;;6.85;;
70899;SDS011;67902;52.154;5.430;2023-03-20T11:45:43;15.63;;;6.75;;
70899;SDS011;67902;52.154;5.430;2023-03-20T11:48:20;18.30;;;7.20;;
70899;SDS011;67902;52.154;5.430;2023-03-20T11:50:58;19.85;;;8.63;;
70899;SDS011;67902;52.154;5.430;2023-03-20T11:53:37;20.10;;;7.10;;
70899;SDS011;67902;52.154;5.430;2023-03-20T12:01:21;25.38;;;7.68;;
70899;SDS011;67902;52.154;5.430;2023-03-20T12:06:17;15.48;;;7.35;;
70899;SDS011;67902;52.154;5.430;2023-03-20T12:08:50;17.30;;;8.20;;
70899;SDS011;67902;52.154;5.430;2023-03-20T12:14:17;25.20;;;8.63;;
70899;SDS011;67902;52.154;5.430;2023-03-20T12:16:50;21.38;;;7.82;;
70899;SDS011;67902;52.154;5.430;2023-03-20T12:19:21;21.95;;;8.55;;
70899;SDS011;67902;52.154;5.430;2023-03-20T12:22:02;18.52;;;8.40;;
70899;SDS011;67902;52.154;5.430;2023-03-20T12:24:44;22.35;;;8.43;;
70899;SDS011;67902;52.154;5.430;2023-03-20T12:27:22;21.38;;;7.72;;
70899;SDS011;67902;52.154;5.430;2023-03-20T12:29:59;20.88;;;9.10;;
70899;SDS011;67902;52.154;5.430;2023-03-20T12:32:43;21.65;;;9.35;;
70899;SDS011;67902;52.154;5.430;2023-03-20T12:38:07;20.60;;;8.60;;
70899;SDS011;67902;52.154;5.430;2023-03-20T12:40:54;26.30;;;9.88;;
70899;SDS011;67902;52.154;5.430;2023-03-20T12:43:36;17.45;;;8.85;;
70899;SDS011;67902;52.154;5.430;2023-03-20T12:52:53;21.55;;;9.13;;
70899;SDS011;67902;52.154;5.430;2023-03-20T12:55:24;21.20;;;9.95;;
70899;SDS011;67902;52.154;5.430;2023-03-20T13:00:44;28.42;;;8.82;;
70899;SDS011;67902;52.154;5.430;2023-03-20T13:03:33;19.95;;;9.43;;
70899;SDS011;67902;52.154;5.430;2023-03-20T13:27:34;24.90;;;9.52;;
70899;SDS011;67902;52.154;5.430;2023-03-20T13:30:14;20.08;;;9.18;;
70899;SDS011;67902;52.154;5.430;2023-03-20T13:38:15;19.38;;;10.15;;
70899;SDS011;67902;52.154;5.430;2023-03-20T13:40:45;24.83;;;10.65;;
70899;SDS011;67902;52.154;5.430;2023-03-20T13:43:26;24.67;;;10.38;;
70899;SDS011;67902;52.154;5.430;2023-03-20T13:46:00;20.63;;;8.80;;
70899;SDS011;67902;52.154;5.430;2023-03-20T13:48:33;26.45;;;10.13;;
70899;SDS011;67902;52.154;5.430;2023-03-20T13:56:52;20.67;;;8.88;;
70899;SDS011;67902;52.154;5.430;2023-03-20T14:04:48;22.58;;;8.88;;
70899;SDS011;67902;52.154;5.430;2023-03-20T14:09:53;21.48;;;9.20;;
70899;SDS011;67902;52.154;5.430;2023-03-20T14:12:25;23.70;;;10.63;;
70899;SDS011;67902;52.154;5.430;2023-03-20T14:14:56;25.63;;;10.98;;
70899;SDS011;67902;52.154;5.430;2023-03-20T14:17:29;23.45;;;10.65;;
70899;SDS011;67902;52.154;5.430;2023-03-20T14:19:57;26.80;;;10.70;;
70899;SDS011;67902;52.154;5.430;2023-03-20T14:22:45;23.75;;;10.55;;
70899;SDS011;67902;52.154;5.430;2023-03-20T14:25:16;21.02;;;10.68;;
70899;SDS011;67902;52.154;5.430;2023-03-20T14:27:58;24.92;;;10.43;;
70899;SDS011;67902;52.154;5.430;2023-03-20T14:33:05;23.38;;;10.00;;
70899;SDS011;67902;52.154;5.430;2023-03-20T14:35:49;24.50;;;10.50;;
70899;SDS011;67902;52.154;5.430;2023-03-20T14:38:30;24.50;;;9.88;;
70899;SDS011;67902;52.154;5.430;2023-03-20T14:41:11;21.23;;;10.02;;
70899;SDS011;67902;52.154;5.430;2023-03-20T14:46:39;23.33;;;10.32;;
70899;SDS011;67902;52.154;5.430;2023-03-20T14:49:25;27.90;;;11.20;;
70899;SDS011;67902;52.154;5.430;2023-03-20T14:52:12;24.08;;;10.27;;
70899;SDS011;67902;52.154;5.430;2023-03-20T14:54:51;24.25;;;9.35;;
70899;SDS011;67902;52.154;5.430;2023-03-20T14:57:28;24.35;;;9.98;;
70899;SDS011;67902;52.154;5.430;2023-03-20T15:00:05;19.95;;;10.13;;
70899;SDS011;67902;52.154;5.430;2023-03-20T15:05:25;20.60;;;9.52;;
70899;SDS011;67902;52.154;5.430;2023-03-20T15:07:57;24.33;;;9.15;;
70899;SDS011;67902;52.154;5.430;2023-03-20T15:10:33;22.80;;;9.38;;
70899;SDS011;67902;52.154;5.430;2023-03-20T15:13:04;24.23;;;9.90;;
70899;SDS011;67902;52.154;5.430;2023-03-20T15:15:32;22.20;;;10.20;;
70899;SDS011;67902;52.154;5.430;2023-03-20T15:18:12;24.48;;;10.43;;
70899;SDS011;67902;52.154;5.430;2023-03-20T15:20:43;18.85;;;8.77;;
70899;SDS011;67902;52.154;5.430;2023-03-20T15:23:10;27.52;;;9.75;;
70899;SDS011;67902;52.154;5.430;2023-03-20T15:28:06;24.05;;;11.02;;
70899;SDS011;67902;52.154;5.430;2023-03-20T15:30:37;23.40;;;9.43;;
70899;SDS011;67902;52.154;5.430;2023-03-20T15:33:06;19.70;;;9.82;;
70899;SDS011;67902;52.154;5.430;2023-03-20T15:35:41;16.63;;;8.95;;
70899;SDS011;67902;52.154;5.430;2023-03-20T15:38:07;20.73;;;8.93;;
70899;SDS011;67902;52.154;5.430;2023-03-20T15:40:42;19.45;;;9.85;;
70899;SDS011;67902;52.154;5.430;2023-03-20T15:43:21;18.42;;;8.95;;
70899;SDS011;67902;52.154;5.430;2023-03-20T15:45:49;21.67;;;9.85;;
70899;SDS011;67902;52.154;5.430;2023-03-20T15:48:35;18.63;;;8.38;;
70899;SDS011;67902;52.154;5.430;2023-03-20T15:51:01;16.80;;;7.68;;
70899;SDS011;67902;52.154;5.430;2023-03-20T15:53:35;16.45;;;8.70;;
70899;SDS011;67902;52.154;5.430;2023-03-20T15:56:07;15.85;;;8.48;;
70899;SDS011;67902;52.154;5.430;2023-03-20T15:58:46;17.55;;;8.15;;
70899;SDS011;67902;52.154;5.430;2023-03-20T16:01:19;17.17;;;8.85;;
70899;SDS011;67902;52.154;5.430;2023-03-20T16:03:49;19.88;;;8.82;;
70899;SDS011;67902;52.154;5.430;2023-03-20T16:06:18;17.80;;;8.48;;
70899;SDS011;67902;52.154;5.430;2023-03-20T16:11:47;21.95;;;9.40;;
70899;SDS011;67902;52.154;5.430;2023-03-20T16:14:21;21.33;;;9.15;;
70899;SDS011;67902;52.154;5.430;2023-03-20T16:16:49;21.23;;;10.60;;
70899;SDS011;67902;52.154;5.430;2023-03-20T16:19:18;23.45;;;10.20;;
70899;SDS011;67902;52.154;5.430;2023-03-20T16:21:49;22.88;;;10.50;;
70899;SDS011;67902;52.154;5.430;2023-03-20T16:24:20;22.42;;;9.85;;
70899;SDS011;67902;52.154;5.430;2023-03-20T16:26:52;22.42;;;11.10;;
70899;SDS011;67902;52.154;5.430;2023-03-20T16:29:20;27.90;;;10.38;;
70899;SDS011;67902;52.154;5.430;2023-03-20T16:32:00;23.13;;;11.50;;
70899;SDS011;67902;52.154;5.430;2023-03-20T16:34:30;23.88;;;10.73;;
70899;SDS011;67902;52.154;5.430;2023-03-20T16:37:02;27.00;;;11.63;;
70899;SDS011;67902;52.154;5.430;2023-03-20T16:39:47;21.48;;;10.30;;
70899;SDS011;67902;52.154;5.430;2023-03-20T16:42:21;25.05;;;11.30;;
70899;SDS011;67902;52.154;5.430;2023-03-20T16:44:54;28.40;;;11.15;;
70899;SDS011;67902;52.154;5.430;2023-03-20T16:47:23;28.48;;;10.80;;
70899;SDS011;67902;52.154;5.430;2023-03-20T16:52:50;26.80;;;11.07;;
70899;SDS011;67902;52.154;5.430;2023-03-20T16:55:22;24.17;;;11.82;;
70899;SDS011;67902;52.154;5.430;2023-03-20T16:57:53;31.85;;;11.35;;
70899;SDS011;67902;52.154;5.430;2023-03-20T17:00:24;25.45;;;11.65;;
70899;SDS011;67902;52.154;5.430;2023-03-20T17:03:10;31.40;;;11.50;;
70899;SDS011;67902;52.154;5.430;2023-03-20T17:08:20;24.50;;;10.40;;
70899;SDS011;67902;52.154;5.430;2023-03-20T17:10:54;25.48;;;11.60;;
70899;SDS011;67902;52.154;5.430;2023-03-20T17:13:23;28.08;;;11.40;;
70899;SDS011;67902;52.154;5.430;2023-03-20T17:15:49;32.47;;;12.43;;
70899;SDS011;67902;52.154;5.430;2023-03-20T17:18:16;30.38;;;12.23;;
70899;SDS011;67902;52.154;5.430;2023-03-20T17:20:43;33.28;;;13.15;;
70899;SDS011;67902;52.154;5.430;2023-03-20T17:23:18;30.27;;;11.80;;
70899;SDS011;67902;52.154;5.430;2023-03-20T17:25:46;31.80;;;12.20;;
70899;SDS011;67902;52.154;5.430;2023-03-20T17:30:49;26.38;;;10.80;;